sensor_id;sensor_type;location;lat;lon;timestamp;P1;durP1;ratioP1;P2;durP2;ratioP2
23826;SDS011;12094;50.822;4.376;2022-07-29T00:00:25;8.02;;;2.58;;
23826;SDS011;12094;50.822;4.376;2022-07-29T00:02:56;7.38;;;2.20;;
23826;SDS011;12094;50.822;4.376;2022-07-29T00:05:24;5.18;;;2.10;;
23826;SDS011;12094;50.822;4.376;2022-07-29T00:07:51;7.68;;;1.98;;
23826;SDS011;12094;50.822;4.376;2022-07-29T00:10:18;8.00;;;2.20;;
23826;SDS011;12094;50.822;4.376;2022-07-29T00:12:45;3.70;;;1.98;;
23826;SDS011;12094;50.822;4.376;2022-07-29T00:15:13;6.70;;;2.25;;
23826;SDS011;12094;50.822;4.376;2022-07-29T00:17:41;9.57;;;2.05;;
23826;SDS011;12094;50.822;4.376;2022-07-29T00:20:08;8.23;;;2.25;;
23826;SDS011;12094;50.822;4.376;2022-07-29T00:22:38;9.65;;;2.10;;
23826;SDS011;12094;50.822;4.376;2022-07-29T00:25:06;5.20;;;2.10;;
23826;SDS011;12094;50.822;4.376;2022-07-29T00:27:34;8.48;;;2.20;;
23826;SDS011;12094;50.822;4.376;2022-07-29T00:30:03;8.35;;;2.45;;
23826;SDS011;12094;50.822;4.376;2022-07-29T00:32:31;10.05;;;2.10;;
23826;SDS011;12094;50.822;4.376;2022-07-29T00:34:59;7.57;;;2.10;;
23826;SDS011;12094;50.822;4.376;2022-07-29T00:37:48;5.70;;;2.10;;
23826;SDS011;12094;50.822;4.376;2022-07-29T00:40:15;5.45;;;2.30;;
23826;SDS011;12094;50.822;4.376;2022-07-29T00:42:46;6.75;;;1.92;;
23826;SDS011;12094;50.822;4.376;2022-07-29T00:45:15;7.15;;;2.17;;
23826;SDS011;12094;50.822;4.376;2022-07-29T00:47:43;6.60;;;2.22;;
23826;SDS011;12094;50.822;4.376;2022-07-29T00:50:11;6.32;;;2.10;;
23826;SDS011;12094;50.822;4.376;2022-07-29T00:52:40;9.10;;;2.20;;
23826;SDS011;12094;50.822;4.376;2022-07-29T00:55:09;7.40;;;2.28;;
23826;SDS011;12094;50.822;4.376;2022-07-29T00:57:38;11.30;;;2.38;;
23826;SDS011;12094;50.822;4.376;2022-07-29T01:00:08;8.00;;;2.50;;
23826;SDS011;12094;50.822;4.376;2022-07-29T01:02:37;8.75;;;2.10;;
23826;SDS011;12094;50.822;4.376;2022-07-29T01:05:04;7.93;;;2.20;;
23826;SDS011;12094;50.822;4.376;2022-07-29T01:07:33;8.30;;;2.30;;
23826;SDS011;12094;50.822;4.376;2022-07-29T01:10:05;7.82;;;2.20;;
23826;SDS011;12094;50.822;4.376;2022-07-29T01:12:37;7.43;;;1.92;;
23826;SDS011;12094;50.822;4.376;2022-07-29T01:15:06;5.57;;;1.88;;
23826;SDS011;12094;50.822;4.376;2022-07-29T01:17:52;5.40;;;2.15;;
23826;SDS011;12094;50.822;4.376;2022-07-29T01:20:28;6.32;;;2.20;;
23826;SDS011;12094;50.822;4.376;2022-07-29T01:23:20;10.13;;;2.30;;
23826;SDS011;12094;50.822;4.376;2022-07-29T01:25:57;7.05;;;2.40;;
23826;SDS011;12094;50.822;4.376;2022-07-29T01:31:25;8.05;;;2.75;;
23826;SDS011;12094;50.822;4.376;2022-07-29T01:34:27;14.48;;;2.50;;
23826;SDS011;12094;50.822;4.376;2022-07-29T01:37:14;7.65;;;2.42;;
23826;SDS011;12094;50.822;4.376;2022-07-29T01:39:45;10.15;;;2.40;;
23826;SDS011;12094;50.822;4.376;2022-07-29T01:42:20;8.73;;;2.78;;
23826;SDS011;12094;50.822;4.376;2022-07-29T01:45:14;6.10;;;2.40;;
23826;SDS011;12094;50.822;4.376;2022-07-29T01:47:56;7.35;;;2.40;;
23826;SDS011;12094;50.822;4.376;2022-07-29T01:56:25;8.27;;;2.22;;
23826;SDS011;12094;50.822;4.376;2022-07-29T02:01:25;7.75;;;2.13;;
23826;SDS011;12094;50.822;4.376;2022-07-29T02:06:24;8.68;;;2.30;;
23826;SDS011;12094;50.822;4.376;2022-07-29T02:08:54;4.72;;;2.20;;
23826;SDS011;12094;50.822;4.376;2022-07-29T02:11:25;6.95;;;2.22;;
23826;SDS011;12094;50.822;4.376;2022-07-29T02:13:52;7.07;;;2.22;;
23826;SDS011;12094;50.822;4.376;2022-07-29T02:16:22;4.95;;;2.10;;
23826;SDS011;12094;50.822;4.376;2022-07-29T02:18:52;4.55;;;1.98;;
23826;SDS011;12094;50.822;4.376;2022-07-29T02:21:23;3.80;;;1.80;;
23826;SDS011;12094;50.822;4.376;2022-07-29T02:23:51;6.00;;;2.05;;
23826;SDS011;12094;50.822;4.376;2022-07-29T02:26:19;9.40;;;2.25;;
23826;SDS011;12094;50.822;4.376;2022-07-29T02:28:48;5.03;;;2.25;;
23826;SDS011;12094;50.822;4.376;2022-07-29T02:31:18;5.20;;;2.10;;
23826;SDS011;12094;50.822;4.376;2022-07-29T02:33:49;10.98;;;2.50;;
23826;SDS011;12094;50.822;4.376;2022-07-29T02:36:21;5.53;;;2.42;;
23826;SDS011;12094;50.822;4.376;2022-07-29T02:38:49;9.57;;;2.60;;
23826;SDS011;12094;50.822;4.376;2022-07-29T02:41:28;4.68;;;2.00;;
23826;SDS011;12094;50.822;4.376;2022-07-29T02:43:58;3.72;;;1.98;;
23826;SDS011;12094;50.822;4.376;2022-07-29T02:46:31;6.45;;;2.40;;
23826;SDS011;12094;50.822;4.376;2022-07-29T02:49:09;5.03;;;2.00;;
23826;SDS011;12094;50.822;4.376;2022-07-29T02:52:01;6.10;;;2.13;;
23826;SDS011;12094;50.822;4.376;2022-07-29T02:55:07;6.35;;;2.55;;
23826;SDS011;12094;50.822;4.376;2022-07-29T02:57:43;5.88;;;2.08;;
23826;SDS011;12094;50.822;4.376;2022-07-29T03:00:21;10.57;;;2.90;;
23826;SDS011;12094;50.822;4.376;2022-07-29T03:02:58;6.03;;;2.88;;
23826;SDS011;12094;50.822;4.376;2022-07-29T03:05:29;7.60;;;2.53;;
23826;SDS011;12094;50.822;4.376;2022-07-29T03:08:00;12.57;;;2.63;;
23826;SDS011;12094;50.822;4.376;2022-07-29T03:10:29;6.63;;;2.47;;
23826;SDS011;12094;50.822;4.376;2022-07-29T03:12:57;11.10;;;2.60;;
23826;SDS011;12094;50.822;4.376;2022-07-29T03:15:25;4.40;;;2.13;;
23826;SDS011;12094;50.822;4.376;2022-07-29T03:17:53;11.55;;;2.97;;
23826;SDS011;12094;50.822;4.376;2022-07-29T03:20:21;6.90;;;2.22;;
23826;SDS011;12094;50.822;4.376;2022-07-29T03:22:49;13.15;;;2.80;;
23826;SDS011;12094;50.822;4.376;2022-07-29T03:25:17;6.93;;;2.42;;
23826;SDS011;12094;50.822;4.376;2022-07-29T03:27:45;10.15;;;2.42;;
23826;SDS011;12094;50.822;4.376;2022-07-29T03:30:13;5.65;;;2.35;;
23826;SDS011;12094;50.822;4.376;2022-07-29T03:32:47;6.93;;;2.42;;
23826;SDS011;12094;50.822;4.376;2022-07-29T03:35:20;6.63;;;2.47;;
23826;SDS011;12094;50.822;4.376;2022-07-29T03:37:47;7.95;;;2.50;;
23826;SDS011;12094;50.822;4.376;2022-07-29T03:40:17;12.68;;;2.50;;
23826;SDS011;12094;50.822;4.376;2022-07-29T03:42:51;7.32;;;2.40;;
23826;SDS011;12094;50.822;4.376;2022-07-29T03:45:19;7.38;;;2.47;;
23826;SDS011;12094;50.822;4.376;2022-07-29T03:47:52;7.43;;;2.50;;
23826;SDS011;12094;50.822;4.376;2022-07-29T03:50:26;6.88;;;2.30;;
23826;SDS011;12094;50.822;4.376;2022-07-29T03:52:55;9.57;;;2.45;;
23826;SDS011;12094;50.822;4.376;2022-07-29T03:55:22;7.75;;;3.05;;
23826;SDS011;12094;50.822;4.376;2022-07-29T03:57:50;7.32;;;2.60;;
23826;SDS011;12094;50.822;4.376;2022-07-29T04:00:18;5.22;;;2.40;;
23826;SDS011;12094;50.822;4.376;2022-07-29T04:02:45;6.95;;;2.30;;
23826;SDS011;12094;50.822;4.376;2022-07-29T04:05:15;9.55;;;3.13;;
23826;SDS011;12094;50.822;4.376;2022-07-29T04:07:44;6.43;;;2.45;;
23826;SDS011;12094;50.822;4.376;2022-07-29T04:10:12;5.97;;;2.33;;
23826;SDS011;12094;50.822;4.376;2022-07-29T04:12:39;6.68;;;2.85;;
23826;SDS011;12094;50.822;4.376;2022-07-29T04:15:07;11.82;;;2.97;;
23826;SDS011;12094;50.822;4.376;2022-07-29T04:17:35;11.38;;;3.00;;
23826;SDS011;12094;50.822;4.376;2022-07-29T04:20:11;5.72;;;2.40;;
23826;SDS011;12094;50.822;4.376;2022-07-29T04:22:41;11.45;;;2.90;;
23826;SDS011;12094;50.822;4.376;2022-07-29T04:25:08;10.30;;;3.30;;
23826;SDS011;12094;50.822;4.376;2022-07-29T04:27:35;9.60;;;3.50;;
23826;SDS011;12094;50.822;4.376;2022-07-29T04:30:02;9.70;;;3.05;;
23826;SDS011;12094;50.822;4.376;2022-07-29T04:32:29;9.05;;;3.45;;
23826;SDS011;12094;50.822;4.376;2022-07-29T04:34:58;9.18;;;3.08;;
23826;SDS011;12094;50.822;4.376;2022-07-29T04:37:25;11.60;;;3.42;;
23826;SDS011;12094;50.822;4.376;2022-07-29T04:39:52;12.15;;;2.92;;
23826;SDS011;12094;50.822;4.376;2022-07-29T04:42:19;11.30;;;3.53;;
23826;SDS011;12094;50.822;4.376;2022-07-29T04:44:53;12.45;;;3.33;;
23826;SDS011;12094;50.822;4.376;2022-07-29T04:47:19;13.10;;;3.47;;
23826;SDS011;12094;50.822;4.376;2022-07-29T04:49:46;8.70;;;3.47;;
23826;SDS011;12094;50.822;4.376;2022-07-29T04:52:13;7.47;;;3.22;;
23826;SDS011;12094;50.822;4.376;2022-07-29T04:54:40;9.88;;;3.58;;
23826;SDS011;12094;50.822;4.376;2022-07-29T04:57:07;7.13;;;3.28;;
23826;SDS011;12094;50.822;4.376;2022-07-29T04:59:34;7.95;;;3.97;;
23826;SDS011;12094;50.822;4.376;2022-07-29T05:02:01;9.70;;;3.60;;
23826;SDS011;12094;50.822;4.376;2022-07-29T05:04:28;11.40;;;3.97;;
23826;SDS011;12094;50.822;4.376;2022-07-29T05:06:56;12.82;;;4.05;;
23826;SDS011;12094;50.822;4.376;2022-07-29T05:09:23;12.80;;;4.25;;
23826;SDS011;12094;50.822;4.376;2022-07-29T05:11:50;12.82;;;4.20;;
23826;SDS011;12094;50.822;4.376;2022-07-29T05:14:17;11.30;;;4.47;;
23826;SDS011;12094;50.822;4.376;2022-07-29T05:16:44;12.05;;;3.90;;
23826;SDS011;12094;50.822;4.376;2022-07-29T05:19:11;8.77;;;4.00;;
23826;SDS011;12094;50.822;4.376;2022-07-29T05:21:44;11.95;;;4.13;;
23826;SDS011;12094;50.822;4.376;2022-07-29T05:24:11;9.35;;;4.18;;
23826;SDS011;12094;50.822;4.376;2022-07-29T05:26:38;11.18;;;3.75;;
23826;SDS011;12094;50.822;4.376;2022-07-29T05:29:05;8.95;;;4.30;;
23826;SDS011;12094;50.822;4.376;2022-07-29T05:31:52;14.32;;;4.40;;
23826;SDS011;12094;50.822;4.376;2022-07-29T05:34:19;10.50;;;4.07;;
23826;SDS011;12094;50.822;4.376;2022-07-29T05:36:47;8.25;;;4.10;;
23826;SDS011;12094;50.822;4.376;2022-07-29T05:39:16;7.30;;;3.78;;
23826;SDS011;12094;50.822;4.376;2022-07-29T05:41:44;8.75;;;3.80;;
23826;SDS011;12094;50.822;4.376;2022-07-29T05:44:17;9.15;;;4.00;;
23826;SDS011;12094;50.822;4.376;2022-07-29T05:46:44;8.88;;;4.15;;
23826;SDS011;12094;50.822;4.376;2022-07-29T05:49:14;8.00;;;4.40;;
23826;SDS011;12094;50.822;4.376;2022-07-29T05:51:52;10.88;;;4.30;;
23826;SDS011;12094;50.822;4.376;2022-07-29T05:54:21;6.65;;;3.90;;
23826;SDS011;12094;50.822;4.376;2022-07-29T05:56:50;8.73;;;4.28;;
23826;SDS011;12094;50.822;4.376;2022-07-29T05:59:18;12.40;;;4.38;;
23826;SDS011;12094;50.822;4.376;2022-07-29T06:01:45;11.85;;;4.63;;
23826;SDS011;12094;50.822;4.376;2022-07-29T06:04:13;11.52;;;4.63;;
23826;SDS011;12094;50.822;4.376;2022-07-29T06:06:41;10.32;;;4.47;;
23826;SDS011;12094;50.822;4.376;2022-07-29T06:09:08;9.18;;;4.57;;
23826;SDS011;12094;50.822;4.376;2022-07-29T06:11:38;7.47;;;4.65;;
23826;SDS011;12094;50.822;4.376;2022-07-29T06:14:05;11.75;;;4.85;;
23826;SDS011;12094;50.822;4.376;2022-07-29T06:16:32;7.70;;;4.60;;
23826;SDS011;12094;50.822;4.376;2022-07-29T06:18:59;10.70;;;5.05;;
23826;SDS011;12094;50.822;4.376;2022-07-29T06:21:26;13.57;;;5.38;;
23826;SDS011;12094;50.822;4.376;2022-07-29T06:23:54;7.93;;;4.75;;
23826;SDS011;12094;50.822;4.376;2022-07-29T06:26:21;10.35;;;4.78;;
23826;SDS011;12094;50.822;4.376;2022-07-29T06:28:58;10.27;;;4.95;;
23826;SDS011;12094;50.822;4.376;2022-07-29T06:31:26;8.65;;;4.68;;
23826;SDS011;12094;50.822;4.376;2022-07-29T06:33:53;7.72;;;5.00;;
23826;SDS011;12094;50.822;4.376;2022-07-29T06:36:20;10.90;;;4.78;;
23826;SDS011;12094;50.822;4.376;2022-07-29T06:38:50;11.43;;;5.03;;
23826;SDS011;12094;50.822;4.376;2022-07-29T06:41:18;8.63;;;4.95;;
23826;SDS011;12094;50.822;4.376;2022-07-29T06:43:45;15.30;;;4.80;;
23826;SDS011;12094;50.822;4.376;2022-07-29T06:46:19;11.07;;;4.97;;
23826;SDS011;12094;50.822;4.376;2022-07-29T06:48:48;8.05;;;4.60;;
23826;SDS011;12094;50.822;4.376;2022-07-29T06:51:16;16.55;;;4.93;;
23826;SDS011;12094;50.822;4.376;2022-07-29T06:53:48;9.43;;;5.35;;
23826;SDS011;12094;50.822;4.376;2022-07-29T06:56:31;9.40;;;5.20;;
23826;SDS011;12094;50.822;4.376;2022-07-29T06:59:05;9.93;;;5.00;;
23826;SDS011;12094;50.822;4.376;2022-07-29T07:01:36;8.95;;;4.97;;
23826;SDS011;12094;50.822;4.376;2022-07-29T07:04:09;11.63;;;4.70;;
23826;SDS011;12094;50.822;4.376;2022-07-29T07:06:36;10.68;;;5.28;;
23826;SDS011;12094;50.822;4.376;2022-07-29T07:09:05;11.15;;;5.03;;
23826;SDS011;12094;50.822;4.376;2022-07-29T07:11:32;7.50;;;4.40;;
23826;SDS011;12094;50.822;4.376;2022-07-29T07:14:01;11.70;;;5.20;;
23826;SDS011;12094;50.822;4.376;2022-07-29T07:16:30;11.38;;;5.22;;
23826;SDS011;12094;50.822;4.376;2022-07-29T07:18:57;8.15;;;4.38;;
23826;SDS011;12094;50.822;4.376;2022-07-29T07:21:24;10.88;;;4.63;;
23826;SDS011;12094;50.822;4.376;2022-07-29T07:23:55;9.65;;;5.13;;
23826;SDS011;12094;50.822;4.376;2022-07-29T07:26:24;13.45;;;4.57;;
23826;SDS011;12094;50.822;4.376;2022-07-29T07:28:52;11.30;;;5.18;;
23826;SDS011;12094;50.822;4.376;2022-07-29T07:31:19;16.55;;;4.75;;
23826;SDS011;12094;50.822;4.376;2022-07-29T07:33:46;11.73;;;4.50;;
23826;SDS011;12094;50.822;4.376;2022-07-29T07:36:14;8.98;;;4.90;;
23826;SDS011;12094;50.822;4.376;2022-07-29T07:38:41;9.85;;;4.75;;
23826;SDS011;12094;50.822;4.376;2022-07-29T07:41:08;13.68;;;5.60;;
23826;SDS011;12094;50.822;4.376;2022-07-29T07:43:35;10.45;;;4.90;;
23826;SDS011;12094;50.822;4.376;2022-07-29T07:46:02;13.93;;;5.20;;
23826;SDS011;12094;50.822;4.376;2022-07-29T07:48:29;13.88;;;5.53;;
23826;SDS011;12094;50.822;4.376;2022-07-29T07:50:57;12.88;;;5.32;;
23826;SDS011;12094;50.822;4.376;2022-07-29T07:53:24;14.00;;;5.97;;
23826;SDS011;12094;50.822;4.376;2022-07-29T07:55:51;12.40;;;5.15;;
23826;SDS011;12094;50.822;4.376;2022-07-29T07:58:37;8.50;;;4.70;;
23826;SDS011;12094;50.822;4.376;2022-07-29T08:01:05;10.32;;;4.82;;
23826;SDS011;12094;50.822;4.376;2022-07-29T08:03:33;11.98;;;4.82;;
23826;SDS011;12094;50.822;4.376;2022-07-29T08:06:00;12.45;;;5.30;;
23826;SDS011;12094;50.822;4.376;2022-07-29T08:08:28;12.43;;;5.70;;
23826;SDS011;12094;50.822;4.376;2022-07-29T08:10:55;10.75;;;5.45;;
23826;SDS011;12094;50.822;4.376;2022-07-29T08:13:23;8.45;;;5.47;;
23826;SDS011;12094;50.822;4.376;2022-07-29T08:15:54;11.48;;;5.65;;
23826;SDS011;12094;50.822;4.376;2022-07-29T08:18:25;11.10;;;5.18;;
23826;SDS011;12094;50.822;4.376;2022-07-29T08:20:53;8.80;;;5.78;;
23826;SDS011;12094;50.822;4.376;2022-07-29T08:23:22;9.75;;;5.45;;
23826;SDS011;12094;50.822;4.376;2022-07-29T08:25:51;11.48;;;5.30;;
23826;SDS011;12094;50.822;4.376;2022-07-29T08:28:21;10.32;;;4.60;;
23826;SDS011;12094;50.822;4.376;2022-07-29T08:30:51;10.07;;;4.88;;
23826;SDS011;12094;50.822;4.376;2022-07-29T08:33:21;9.98;;;4.60;;
23826;SDS011;12094;50.822;4.376;2022-07-29T08:35:47;10.95;;;4.45;;
23826;SDS011;12094;50.822;4.376;2022-07-29T08:38:17;10.70;;;3.95;;
23826;SDS011;12094;50.822;4.376;2022-07-29T08:40:44;9.10;;;3.63;;
23826;SDS011;12094;50.822;4.376;2022-07-29T08:43:12;7.65;;;3.70;;
23826;SDS011;12094;50.822;4.376;2022-07-29T08:45:43;7.70;;;3.92;;
23826;SDS011;12094;50.822;4.376;2022-07-29T08:48:13;7.20;;;3.20;;
23826;SDS011;12094;50.822;4.376;2022-07-29T08:50:43;6.85;;;3.60;;
23826;SDS011;12094;50.822;4.376;2022-07-29T08:53:15;11.50;;;3.65;;
23826;SDS011;12094;50.822;4.376;2022-07-29T08:55:44;9.85;;;3.42;;
23826;SDS011;12094;50.822;4.376;2022-07-29T08:58:12;11.98;;;3.28;;
23826;SDS011;12094;50.822;4.376;2022-07-29T09:00:43;6.95;;;2.80;;
23826;SDS011;12094;50.822;4.376;2022-07-29T09:03:15;6.03;;;2.80;;
23826;SDS011;12094;50.822;4.376;2022-07-29T09:05:44;10.55;;;2.83;;
23826;SDS011;12094;50.822;4.376;2022-07-29T09:08:14;8.00;;;3.00;;
23826;SDS011;12094;50.822;4.376;2022-07-29T09:10:43;5.65;;;2.75;;
23826;SDS011;12094;50.822;4.376;2022-07-29T09:13:12;5.13;;;2.50;;
23826;SDS011;12094;50.822;4.376;2022-07-29T09:15:40;6.03;;;2.42;;
23826;SDS011;12094;50.822;4.376;2022-07-29T09:18:08;6.90;;;2.50;;
23826;SDS011;12094;50.822;4.376;2022-07-29T09:20:54;7.13;;;2.40;;
23826;SDS011;12094;50.822;4.376;2022-07-29T09:23:59;9.13;;;3.00;;
23826;SDS011;12094;50.822;4.376;2022-07-29T09:26:29;9.43;;;2.88;;
23826;SDS011;12094;50.822;4.376;2022-07-29T09:28:59;8.15;;;3.25;;
23826;SDS011;12094;50.822;4.376;2022-07-29T09:31:36;6.13;;;2.83;;
23826;SDS011;12094;50.822;4.376;2022-07-29T09:34:05;6.90;;;2.72;;
23826;SDS011;12094;50.822;4.376;2022-07-29T09:36:39;6.20;;;2.60;;
23826;SDS011;12094;50.822;4.376;2022-07-29T09:39:25;6.25;;;3.03;;
23826;SDS011;12094;50.822;4.376;2022-07-29T09:42:05;7.78;;;2.58;;
23826;SDS011;12094;50.822;4.376;2022-07-29T09:47:16;8.07;;;2.90;;
23826;SDS011;12094;50.822;4.376;2022-07-29T09:49:51;10.30;;;3.03;;
23826;SDS011;12094;50.822;4.376;2022-07-29T09:52:27;11.95;;;2.92;;
23826;SDS011;12094;50.822;4.376;2022-07-29T09:55:06;8.10;;;3.17;;
23826;SDS011;12094;50.822;4.376;2022-07-29T09:57:33;7.70;;;2.60;;
23826;SDS011;12094;50.822;4.376;2022-07-29T10:00:03;9.45;;;2.97;;
23826;SDS011;12094;50.822;4.376;2022-07-29T10:02:39;8.38;;;2.92;;
23826;SDS011;12094;50.822;4.376;2022-07-29T10:05:16;6.68;;;2.67;;
23826;SDS011;12094;50.822;4.376;2022-07-29T10:15:26;6.38;;;3.20;;
23826;SDS011;12094;50.822;4.376;2022-07-29T10:17:55;8.05;;;2.70;;
23826;SDS011;12094;50.822;4.376;2022-07-29T10:20:24;6.45;;;2.60;;
23826;SDS011;12094;50.822;4.376;2022-07-29T10:22:53;5.60;;;2.83;;
23826;SDS011;12094;50.822;4.376;2022-07-29T10:25:21;5.30;;;2.50;;
23826;SDS011;12094;50.822;4.376;2022-07-29T10:27:49;8.70;;;3.03;;
23826;SDS011;12094;50.822;4.376;2022-07-29T10:30:18;3.53;;;2.25;;
23826;SDS011;12094;50.822;4.376;2022-07-29T10:39:15;6.70;;;2.42;;
23826;SDS011;12094;50.822;4.376;2022-07-29T10:44:28;5.15;;;2.50;;
23826;SDS011;12094;50.822;4.376;2022-07-29T10:47:00;15.25;;;3.13;;
23826;SDS011;12094;50.822;4.376;2022-07-29T10:49:27;7.45;;;2.65;;
23826;SDS011;12094;50.822;4.376;2022-07-29T10:52:06;7.13;;;2.75;;
23826;SDS011;12094;50.822;4.376;2022-07-29T10:54:38;6.90;;;2.92;;
23826;SDS011;12094;50.822;4.376;2022-07-29T11:02:43;5.57;;;2.55;;
23826;SDS011;12094;50.822;4.376;2022-07-29T11:05:16;6.22;;;2.40;;
23826;SDS011;12094;50.822;4.376;2022-07-29T11:10:52;10.50;;;3.17;;
23826;SDS011;12094;50.822;4.376;2022-07-29T11:16:22;7.00;;;2.80;;
23826;SDS011;12094;50.822;4.376;2022-07-29T11:21:52;7.25;;;2.22;;
23826;SDS011;12094;50.822;4.376;2022-07-29T11:24:30;9.43;;;3.45;;
23826;SDS011;12094;50.822;4.376;2022-07-29T11:27:20;9.45;;;3.63;;
23826;SDS011;12094;50.822;4.376;2022-07-29T11:29:54;8.30;;;3.23;;
23826;SDS011;12094;50.822;4.376;2022-07-29T11:32:35;5.47;;;2.35;;
23826;SDS011;12094;50.822;4.376;2022-07-29T11:35:17;7.18;;;3.53;;
23826;SDS011;12094;50.822;4.376;2022-07-29T11:38:24;7.40;;;3.50;;
23826;SDS011;12094;50.822;4.376;2022-07-29T11:43:59;7.15;;;2.53;;
23826;SDS011;12094;50.822;4.376;2022-07-29T11:49:13;10.60;;;3.83;;
23826;SDS011;12094;50.822;4.376;2022-07-29T11:51:51;9.82;;;4.13;;
23826;SDS011;12094;50.822;4.376;2022-07-29T11:54:25;10.90;;;4.65;;
23826;SDS011;12094;50.822;4.376;2022-07-29T11:56:59;11.52;;;4.30;;
23826;SDS011;12094;50.822;4.376;2022-07-29T11:59:27;10.32;;;3.95;;
23826;SDS011;12094;50.822;4.376;2022-07-29T12:02:17;8.95;;;3.58;;
23826;SDS011;12094;50.822;4.376;2022-07-29T12:05:04;12.10;;;3.72;;
23826;SDS011;12094;50.822;4.376;2022-07-29T12:07:37;10.40;;;3.78;;
23826;SDS011;12094;50.822;4.376;2022-07-29T12:10:11;9.02;;;3.58;;
23826;SDS011;12094;50.822;4.376;2022-07-29T12:12:50;10.02;;;3.25;;
23826;SDS011;12094;50.822;4.376;2022-07-29T12:15:20;8.25;;;3.03;;
23826;SDS011;12094;50.822;4.376;2022-07-29T12:17:47;9.68;;;3.20;;
23826;SDS011;12094;50.822;4.376;2022-07-29T12:20:25;7.13;;;3.28;;
23826;SDS011;12094;50.822;4.376;2022-07-29T12:22:57;9.65;;;3.10;;
23826;SDS011;12094;50.822;4.376;2022-07-29T12:25:24;6.25;;;3.25;;
23826;SDS011;12094;50.822;4.376;2022-07-29T12:28:00;9.80;;;3.90;;
23826;SDS011;12094;50.822;4.376;2022-07-29T12:30:38;10.77;;;3.67;;
23826;SDS011;12094;50.822;4.376;2022-07-29T12:33:12;7.17;;;3.30;;
23826;SDS011;12094;50.822;4.376;2022-07-29T12:35:42;11.85;;;3.50;;
23826;SDS011;12094;50.822;4.376;2022-07-29T12:38:19;10.85;;;4.63;;
23826;SDS011;12094;50.822;4.376;2022-07-29T12:40:49;9.15;;;3.90;;
23826;SDS011;12094;50.822;4.376;2022-07-29T12:43:18;8.77;;;3.47;;
23826;SDS011;12094;50.822;4.376;2022-07-29T12:45:49;9.98;;;3.42;;
23826;SDS011;12094;50.822;4.376;2022-07-29T12:48:18;10.30;;;3.65;;
23826;SDS011;12094;50.822;4.376;2022-07-29T12:51:04;11.02;;;2.83;;
23826;SDS011;12094;50.822;4.376;2022-07-29T12:53:33;9.70;;;3.17;;
23826;SDS011;12094;50.822;4.376;2022-07-29T12:56:02;8.95;;;3.00;;
23826;SDS011;12094;50.822;4.376;2022-07-29T12:58:51;10.93;;;3.15;;
23826;SDS011;12094;50.822;4.376;2022-07-29T13:01:21;6.70;;;2.53;;
23826;SDS011;12094;50.822;4.376;2022-07-29T13:03:53;10.63;;;3.20;;
23826;SDS011;12094;50.822;4.376;2022-07-29T13:06:42;9.60;;;3.30;;
23826;SDS011;12094;50.822;4.376;2022-07-29T13:09:35;7.18;;;2.88;;
23826;SDS011;12094;50.822;4.376;2022-07-29T13:12:10;9.23;;;2.90;;
23826;SDS011;12094;50.822;4.376;2022-07-29T13:14:48;6.85;;;2.97;;
23826;SDS011;12094;50.822;4.376;2022-07-29T13:17:20;7.47;;;3.00;;
23826;SDS011;12094;50.822;4.376;2022-07-29T13:20:06;9.88;;;2.95;;
23826;SDS011;12094;50.822;4.376;2022-07-29T13:22:38;4.78;;;2.47;;
23826;SDS011;12094;50.822;4.376;2022-07-29T13:25:07;7.03;;;2.67;;
23826;SDS011;12094;50.822;4.376;2022-07-29T13:27:36;6.63;;;2.88;;
23826;SDS011;12094;50.822;4.376;2022-07-29T13:30:07;8.00;;;2.72;;
23826;SDS011;12094;50.822;4.376;2022-07-29T13:32:41;5.85;;;2.80;;
23826;SDS011;12094;50.822;4.376;2022-07-29T13:35:09;7.38;;;2.92;;
23826;SDS011;12094;50.822;4.376;2022-07-29T13:37:37;9.25;;;2.97;;
23826;SDS011;12094;50.822;4.376;2022-07-29T13:40:08;8.82;;;2.42;;
23826;SDS011;12094;50.822;4.376;2022-07-29T13:42:38;9.32;;;2.22;;
23826;SDS011;12094;50.822;4.376;2022-07-29T13:45:05;5.75;;;2.15;;
23826;SDS011;12094;50.822;4.376;2022-07-29T13:47:33;7.85;;;2.78;;
23826;SDS011;12094;50.822;4.376;2022-07-29T13:50:00;6.32;;;2.15;;
23826;SDS011;12094;50.822;4.376;2022-07-29T13:52:30;6.45;;;2.45;;
23826;SDS011;12094;50.822;4.376;2022-07-29T13:54:59;7.53;;;2.30;;
23826;SDS011;12094;50.822;4.376;2022-07-29T13:57:27;6.45;;;2.22;;
23826;SDS011;12094;50.822;4.376;2022-07-29T13:59:55;9.85;;;3.08;;
23826;SDS011;12094;50.822;4.376;2022-07-29T14:02:23;11.20;;;2.50;;
23826;SDS011;12094;50.822;4.376;2022-07-29T14:04:52;5.93;;;2.47;;
23826;SDS011;12094;50.822;4.376;2022-07-29T14:07:20;24.23;;;3.78;;
23826;SDS011;12094;50.822;4.376;2022-07-29T14:09:48;7.05;;;2.30;;
23826;SDS011;12094;50.822;4.376;2022-07-29T14:12:16;4.80;;;2.08;;
23826;SDS011;12094;50.822;4.376;2022-07-29T14:14:44;9.95;;;2.42;;
23826;SDS011;12094;50.822;4.376;2022-07-29T14:17:15;6.43;;;1.90;;
23826;SDS011;12094;50.822;4.376;2022-07-29T14:19:42;6.25;;;2.20;;
23826;SDS011;12094;50.822;4.376;2022-07-29T14:22:09;6.10;;;1.88;;
23826;SDS011;12094;50.822;4.376;2022-07-29T14:24:36;6.45;;;1.90;;
23826;SDS011;12094;50.822;4.376;2022-07-29T14:30:07;5.07;;;1.83;;
23826;SDS011;12094;50.822;4.376;2022-07-29T14:32:34;6.32;;;2.22;;
23826;SDS011;12094;50.822;4.376;2022-07-29T14:35:05;9.50;;;2.28;;
23826;SDS011;12094;50.822;4.376;2022-07-29T14:38:09;10.02;;;2.58;;
23826;SDS011;12094;50.822;4.376;2022-07-29T14:40:53;8.95;;;2.20;;
23826;SDS011;12094;50.822;4.376;2022-07-29T14:43:28;3.92;;;2.03;;
23826;SDS011;12094;50.822;4.376;2022-07-29T14:45:56;9.40;;;1.90;;
23826;SDS011;12094;50.822;4.376;2022-07-29T14:48:34;5.47;;;1.92;;
23826;SDS011;12094;50.822;4.376;2022-07-29T14:51:01;10.90;;;1.92;;
23826;SDS011;12094;50.822;4.376;2022-07-29T14:53:51;6.43;;;2.10;;
23826;SDS011;12094;50.822;4.376;2022-07-29T14:56:26;7.68;;;1.80;;
23826;SDS011;12094;50.822;4.376;2022-07-29T14:59:15;5.30;;;1.80;;
23826;SDS011;12094;50.822;4.376;2022-07-29T15:02:11;7.13;;;2.17;;
23826;SDS011;12094;50.822;4.376;2022-07-29T15:04:39;6.63;;;1.80;;
23826;SDS011;12094;50.822;4.376;2022-07-29T15:07:17;7.03;;;1.90;;
23826;SDS011;12094;50.822;4.376;2022-07-29T15:09:50;6.38;;;2.10;;
23826;SDS011;12094;50.822;4.376;2022-07-29T15:12:28;9.25;;;2.30;;
23826;SDS011;12094;50.822;4.376;2022-07-29T15:18:02;5.35;;;1.80;;
23826;SDS011;12094;50.822;4.376;2022-07-29T15:20:30;7.80;;;2.13;;
23826;SDS011;12094;50.822;4.376;2022-07-29T15:23:06;5.55;;;2.08;;
23826;SDS011;12094;50.822;4.376;2022-07-29T15:25:44;5.85;;;2.22;;
23826;SDS011;12094;50.822;4.376;2022-07-29T15:28:34;10.60;;;2.75;;
23826;SDS011;12094;50.822;4.376;2022-07-29T15:31:03;4.70;;;2.40;;
23826;SDS011;12094;50.822;4.376;2022-07-29T15:36:39;6.63;;;2.58;;
23826;SDS011;12094;50.822;4.376;2022-07-29T15:39:19;8.35;;;2.53;;
23826;SDS011;12094;50.822;4.376;2022-07-29T15:42:06;9.63;;;2.90;;
23826;SDS011;12094;50.822;4.376;2022-07-29T15:45:11;6.03;;;2.30;;
23826;SDS011;12094;50.822;4.376;2022-07-29T15:50:53;7.78;;;2.88;;
23826;SDS011;12094;50.822;4.376;2022-07-29T15:53:22;5.65;;;2.33;;
23826;SDS011;12094;50.822;4.376;2022-07-29T15:55:49;6.07;;;2.88;;
23826;SDS011;12094;50.822;4.376;2022-07-29T15:58:16;4.90;;;2.70;;
23826;SDS011;12094;50.822;4.376;2022-07-29T16:00:44;7.88;;;2.85;;
23826;SDS011;12094;50.822;4.376;2022-07-29T16:03:13;7.35;;;3.08;;
23826;SDS011;12094;50.822;4.376;2022-07-29T16:05:40;5.72;;;2.83;;
23826;SDS011;12094;50.822;4.376;2022-07-29T16:08:09;11.23;;;3.30;;
23826;SDS011;12094;50.822;4.376;2022-07-29T16:10:36;7.97;;;2.83;;
23826;SDS011;12094;50.822;4.376;2022-07-29T16:13:03;6.65;;;3.03;;
23826;SDS011;12094;50.822;4.376;2022-07-29T16:15:30;10.15;;;3.10;;